Time;durP1;ratioP1;P1;durP2;ratioP2;P2;SDS_P1;SDS_P2;PMS_P1;PMS_P2;Temp;Humidity;BMP_temperature;BMP_pressure;BME280_temperature;BME280_humidity;BME280_pressure;Samples;Min_cycle;Max_cycle;Signal;HPM_P1;HPM_P2
2022/01/24 00:00:50;;;;;;;32.03;16.52;;;;;;;;;;5098823;28;20134;-81
2022/01/24 00:03:15;;;;;;;34.38;17.35;;;;;;;;;;5086235;28;20028;-81
2022/01/24 00:05:41;;;;;;;35.85;18.30;;;;;;;;;;5085818;28;20046;-85
2022/01/24 00:08:06;;;;;;;35.05;18.58;;;;;;;;;;5081503;28;20094;-81
2022/01/24 00:10:35;;;;;;;34.72;18.38;;;;;;;;;;5087122;28;20081;-85
2022/01/24 00:18:26;;;;;;;39.53;20.20;;;;;;;;;;5101064;28;20027;-85
2022/01/24 00:26:43;;;;;;;39.45;20.55;;;;;;;;;;5094858;28;20505;-86
2022/01/24 00:29:04;;;;;;;37.60;19.88;;;;;;;;;;5102402;28;20031;-84
2022/01/24 00:31:33;;;;;;;38.10;20.05;;;;;;;;;;5087933;28;20032;-81
2022/01/24 00:33:58;;;;;;;32.72;18.10;;;;;;;;;;5082123;28;20044;-82
2022/01/24 00:36:23;;;;;;;38.17;21.27;;;;;;;;;;5080908;28;20047;-84
2022/01/24 00:38:48;;;;;;;38.53;20.67;;;;;;;;;;5082668;28;20032;-85
2022/01/24 00:41:17;;;;;;;39.00;21.10;;;;;;;;;;5086633;28;20027;-83
2022/01/24 00:44:39;;;;;;;34.47;18.83;;;;;;;;;;5102131;28;20100;-85
2022/01/24 00:46:47;;;;;;;39.55;21.30;;;;;;;;;;5096600;28;20055;-85
2022/01/24 00:56:59;;;;;;;36.35;21.27;;;;;;;;;;5097294;28;20423;-81
2022/01/24 00:59:25;;;;;;;37.20;21.15;;;;;;;;;;5078657;28;20028;-84
2022/01/24 01:01:50;;;;;;;36.20;21.45;;;;;;;;;;5085984;28;20080;-85
2022/01/24 01:04:16;;;;;;;38.75;23.23;;;;;;;;;;5082591;28;20023;-84
2022/01/24 01:06:44;;;;;;;34.25;21.02;;;;;;;;;;5081041;28;20035;-85
2022/01/24 01:20:05;;;;;;;35.03;20.85;;;;;;;;;;5102047;28;21612;-84
2022/01/24 01:22:30;;;;;;;34.47;20.23;;;;;;;;;;5093960;28;20024;-85
2022/01/24 01:24:57;;;;;;;34.08;21.00;;;;;;;;;;5101550;28;20393;-81
2022/01/24 01:27:33;;;;;;;38.60;22.58;;;;;;;;;;5078204;28;20028;-85
2022/01/24 01:30:15;;;;;;;35.65;21.67;;;;;;;;;;5092714;28;20023;-85
2022/01/24 01:33:04;;;;;;;34.72;21.05;;;;;;;;;;5077116;28;20028;-83
2022/01/24 01:36:02;;;;;;;36.47;20.58;;;;;;;;;;5097964;28;20070;-84
2022/01/24 01:54:51;;;;;;;34.28;20.42;;;;;;;;;;5099919;28;20062;-82
2022/01/24 01:57:18;;;;;;;;;;;;;;;;;;5074816;28;20541;-82
2022/01/24 01:59:44;;;;;;;30.23;18.08;;;;;;;;;;5078513;28;19985;-82
2022/01/24 02:02:09;;;;;;;29.70;17.55;;;;;;;;;;5079095;28;20040;-84
2022/01/24 02:04:35;;;;;;;31.15;19.92;;;;;;;;;;5081766;28;20028;-85
2022/01/24 02:07:01;;;;;;;31.35;18.33;;;;;;;;;;5098307;28;20032;-83
2022/01/24 02:09:33;;;;;;;31.45;19.58;;;;;;;;;;5095495;28;20032;-83
2022/01/24 02:11:59;;;;;;;29.70;18.15;;;;;;;;;;5076705;28;20107;-84
2022/01/24 02:14:31;;;;;;;32.10;19.27;;;;;;;;;;5079441;28;20581;-85
2022/01/24 02:17:03;;;;;;;32.00;20.02;;;;;;;;;;5084707;28;20114;-84
2022/01/24 02:20:07;;;;;;;30.50;18.48;;;;;;;;;;5078556;28;20518;-84
2022/01/24 02:24:58;;;;;;;31.98;18.75;;;;;;;;;;5095251;28;20026;-84
2022/01/24 02:27:26;;;;;;;31.13;18.50;;;;;;;;;;5083542;28;20031;-81
2022/01/24 02:30:26;;;;;;;29.67;17.77;;;;;;;;;;5085065;28;20053;-85
2022/01/24 02:32:41;;;;;;;30.10;18.85;;;;;;;;;;5095557;28;20130;-83
2022/01/24 02:35:08;;;;;;;34.03;19.63;;;;;;;;;;5080677;28;20079;-85
2022/01/24 02:37:34;;;;;;;36.55;21.20;;;;;;;;;;5075945;28;20024;-84
2022/01/24 02:40:13;;;;;;;38.97;21.55;;;;;;;;;;5078610;28;20184;-85
2022/01/24 02:48:27;;;;;;;33.45;19.65;;;;;;;;;;5100902;28;20034;-85
2022/01/24 02:51:22;;;;;;;32.70;18.98;;;;;;;;;;5079664;28;20488;-82
2022/01/24 02:53:48;;;;;;;33.45;19.35;;;;;;;;;;5078720;28;20501;-82
2022/01/24 02:56:13;;;;;;;32.45;18.85;;;;;;;;;;5094126;28;20031;-84
2022/01/24 02:58:38;;;;;;;30.77;18.83;;;;;;;;;;5082166;28;20457;-84
2022/01/24 03:01:07;;;;;;;27.27;16.10;;;;;;;;;;5088982;28;20509;-85
2022/01/24 03:03:33;;;;;;;22.60;14.23;;;;;;;;;;5100912;28;20287;-85
2022/01/24 03:05:59;;;;;;;21.98;13.65;;;;;;;;;;5097847;28;20027;-84
2022/01/24 03:08:24;;;;;;;25.08;14.88;;;;;;;;;;5081937;28;20027;-82
2022/01/24 03:10:51;;;;;;;24.52;15.60;;;;;;;;;;5074554;28;20038;-85
2022/01/24 03:13:21;;;;;;;26.83;16.63;;;;;;;;;;5078145;28;20032;-84
2022/01/24 03:15:52;;;;;;;25.90;16.48;;;;;;;;;;5074843;28;20027;-83
2022/01/24 03:18:18;;;;;;;25.88;15.25;;;;;;;;;;5082585;28;20057;-81
2022/01/24 03:20:46;;;;;;;26.38;15.73;;;;;;;;;;5082129;28;20518;-84
2022/01/24 03:23:13;;;;;;;27.88;17.08;;;;;;;;;;5075221;28;20177;-83
2022/01/24 03:25:39;;;;;;;26.13;15.50;;;;;;;;;;5076414;28;20032;-85
2022/01/24 03:28:05;;;;;;;26.52;16.75;;;;;;;;;;5079730;28;20031;-85
2022/01/24 03:30:34;;;;;;;26.58;16.20;;;;;;;;;;5076766;28;20028;-86
2022/01/24 03:33:00;;;;;;;27.05;17.13;;;;;;;;;;5083845;28;20027;-84
2022/01/24 03:35:26;;;;;;;26.17;16.13;;;;;;;;;;5074714;28;20524;-85
2022/01/24 03:37:52;;;;;;;28.85;16.83;;;;;;;;;;5075676;28;20032;-85
2022/01/24 03:40:17;;;;;;;24.17;16.30;;;;;;;;;;5078260;28;20032;-84
2022/01/24 03:42:43;;;;;;;24.38;15.73;;;;;;;;;;5070002;28;20032;-85
2022/01/24 03:45:10;;;;;;;25.83;16.77;;;;;;;;;;5076956;28;20062;-85
2022/01/24 03:50:17;;;;;;;22.95;14.60;;;;;;;;;;5082659;28;20028;-83
2022/01/24 03:52:46;;;;;;;25.20;15.55;;;;;;;;;;5072896;28;20029;-85
2022/01/24 03:55:12;;;;;;;26.48;16.67;;;;;;;;;;5075965;28;20032;-84
2022/01/24 03:57:39;;;;;;;24.58;15.85;;;;;;;;;;5080711;28;20032;-84
2022/01/24 04:00:07;;;;;;;25.27;17.38;;;;;;;;;;5068573;28;20036;-85
2022/01/24 04:02:33;;;;;;;26.60;16.35;;;;;;;;;;5073326;28;20027;-85
2022/01/24 04:04:58;;;;;;;23.67;15.35;;;;;;;;;;5074237;28;20490;-82
2022/01/24 04:07:24;;;;;;;25.40;16.90;;;;;;;;;;5073756;28;20039;-85
2022/01/24 04:09:50;;;;;;;24.33;15.80;;;;;;;;;;5075190;28;20029;-82
2022/01/24 04:12:16;;;;;;;24.33;15.93;;;;;;;;;;5077423;28;20020;-85
2022/01/24 04:22:19;;;;;;;25.25;15.90;;;;;;;;;;5076689;28;20016;-84
2022/01/24 04:24:46;;;;;;;22.63;14.70;;;;;;;;;;5076212;28;20024;-84
2022/01/24 04:27:15;;;;;;;24.95;15.82;;;;;;;;;;5075899;28;20452;-85
2022/01/24 04:29:42;;;;;;;22.38;14.85;;;;;;;;;;5068525;28;20470;-85
2022/01/24 04:32:09;;;;;;;24.88;16.52;;;;;;;;;;5070781;28;20028;-85
2022/01/24 04:34:35;;;;;;;27.85;16.50;;;;;;;;;;5070865;28;20052;-84
2022/01/24 04:37:01;;;;;;;23.55;15.38;;;;;;;;;;5069609;28;20037;-84
2022/01/24 04:39:27;;;;;;;26.73;16.63;;;;;;;;;;5076965;28;20031;-85
2022/01/24 04:41:56;;;;;;;25.95;16.05;;;;;;;;;;5071449;28;20040;-84
2022/01/24 04:54:52;;;;;;;31.75;19.55;;;;;;;;;;5074452;28;20032;-85
2022/01/24 04:57:23;;;;;;;31.23;19.58;;;;;;;;;;5077628;28;20039;-82
2022/01/24 04:59:51;;;;;;;34.75;20.52;;;;;;;;;;5067999;28;20395;-85
2022/01/24 05:02:19;;;;;;;30.50;19.52;;;;;;;;;;5070860;28;20330;-84
2022/01/24 05:04:45;;;;;;;32.75;20.13;;;;;;;;;;5072854;28;20025;-84
2022/01/24 05:07:11;;;;;;;31.80;19.48;;;;;;;;;;5066549;28;20031;-82
2022/01/24 05:09:44;;;;;;;29.90;19.77;;;;;;;;;;5068780;28;20510;-85
2022/01/24 05:12:19;;;;;;;32.58;20.23;;;;;;;;;;5074819;28;20122;-85
2022/01/24 05:25:40;;;;;;;30.10;19.20;;;;;;;;;;5076132;28;20047;-84
2022/01/24 05:28:05;;;;;;;31.42;19.27;;;;;;;;;;5071434;28;20050;-81
2022/01/24 05:30:30;;;;;;;30.67;19.52;;;;;;;;;;5070251;28;20028;-85
2022/01/24 05:32:56;;;;;;;30.55;18.60;;;;;;;;;;5067969;28;20058;-85
2022/01/24 05:35:21;;;;;;;33.03;19.92;;;;;;;;;;5067896;28;20583;-85
2022/01/24 05:37:46;;;;;;;28.13;18.83;;;;;;;;;;5073544;28;20016;-84
2022/01/24 05:40:12;;;;;;;31.42;19.70;;;;;;;;;;5072727;28;20077;-85
2022/01/24 05:42:37;;;;;;;32.47;18.83;;;;;;;;;;5072787;28;20071;-82
2022/01/24 05:45:04;;;;;;;29.85;18.50;;;;;;;;;;5075481;28;20119;-84
2022/01/24 05:47:30;;;;;;;29.52;18.60;;;;;;;;;;5075714;28;20040;-83
2022/01/24 05:49:56;;;;;;;28.02;17.48;;;;;;;;;;5068151;28;20238;-85
2022/01/24 05:52:21;;;;;;;26.65;16.65;;;;;;;;;;5077701;28;20286;-85
2022/01/24 05:54:46;;;;;;;25.75;16.00;;;;;;;;;;5079839;28;20061;-84
2022/01/24 05:57:12;;;;;;;27.85;17.30;;;;;;;;;;5075937;28;20070;-85
2022/01/24 05:59:38;;;;;;;27.77;17.40;;;;;;;;;;5074839;28;20029;-84
2022/01/24 06:02:04;;;;;;;29.48;17.75;;;;;;;;;;5078467;28;20131;-85
2022/01/24 06:04:30;;;;;;;27.05;16.50;;;;;;;;;;5072458;28;20034;-84
2022/01/24 06:06:55;;;;;;;24.33;16.02;;;;;;;;;;5076266;28;20028;-84
2022/01/24 06:09:20;;;;;;;27.67;17.17;;;;;;;;;;5074298;28;20028;-82
2022/01/24 06:11:46;;;;;;;23.45;15.93;;;;;;;;;;5081622;28;20112;-82
2022/01/24 06:14:12;;;;;;;24.77;15.43;;;;;;;;;;5076864;28;20032;-84
2022/01/24 06:16:38;;;;;;;25.42;15.73;;;;;;;;;;5075528;28;20035;-84
2022/01/24 06:19:03;;;;;;;23.25;14.90;;;;;;;;;;5072260;28;20054;-85
2022/01/24 06:21:29;;;;;;;24.08;14.75;;;;;;;;;;5076174;28;20032;-85
2022/01/24 06:23:55;;;;;;;22.35;13.80;;;;;;;;;;5072793;28;20033;-85
2022/01/24 06:26:20;;;;;;;22.65;13.65;;;;;;;;;;5073228;28;20050;-82
2022/01/24 06:28:46;;;;;;;23.23;14.57;;;;;;;;;;5071620;28;20028;-82
2022/01/24 06:31:11;;;;;;;20.42;13.55;;;;;;;;;;5074111;28;20028;-84
2022/01/24 06:33:37;;;;;;;19.02;13.07;;;;;;;;;;5078469;28;20130;-85
2022/01/24 06:36:02;;;;;;;21.17;13.63;;;;;;;;;;5083846;28;20549;-85
2022/01/24 06:38:28;;;;;;;22.30;13.82;;;;;;;;;;5079321;28;20486;-85
2022/01/24 06:40:54;;;;;;;22.98;14.23;;;;;;;;;;5081161;28;20063;-83
2022/01/24 06:43:20;;;;;;;22.02;14.32;;;;;;;;;;5084318;28;20151;-85
2022/01/24 06:45:45;;;;;;;21.70;13.90;;;;;;;;;;5099060;28;20032;-85
2022/01/24 06:48:10;;;;;;;21.55;13.48;;;;;;;;;;5085403;28;20494;-86
2022/01/24 06:50:36;;;;;;;27.52;14.27;;;;;;;;;;5104668;28;20031;-84
2022/01/24 06:53:02;;;;;;;24.10;14.15;;;;;;;;;;5078509;28;20038;-85
2022/01/24 06:55:27;;;;;;;21.77;13.43;;;;;;;;;;5100945;28;20019;-85
2022/01/24 06:57:52;;;;;;;21.00;13.05;;;;;;;;;;5085494;28;20071;-84
2022/01/24 07:00:22;;;;;;;20.77;12.88;;;;;;;;;;5078280;28;20024;-84
2022/01/24 07:02:48;;;;;;;22.10;13.02;;;;;;;;;;5082046;28;20754;-85
2022/01/24 07:05:14;;;;;;;22.75;13.45;;;;;;;;;;5104877;28;20125;-85
2022/01/24 07:07:39;;;;;;;21.92;13.43;;;;;;;;;;5081837;28;20051;-85
2022/01/24 07:10:05;;;;;;;19.67;12.90;;;;;;;;;;5088957;28;20026;-85
2022/01/24 07:12:30;;;;;;;22.73;14.18;;;;;;;;;;5085013;28;20043;-85
2022/01/24 07:14:56;;;;;;;24.00;15.18;;;;;;;;;;5087114;28;20373;-85
2022/01/24 07:19:49;;;;;;;20.58;13.98;;;;;;;;;;5100447;28;20027;-84
2022/01/24 07:22:15;;;;;;;23.98;14.77;;;;;;;;;;5101912;28;20030;-86
2022/01/24 07:24:40;;;;;;;21.75;13.73;;;;;;;;;;5085997;28;20405;-81
2022/01/24 07:27:06;;;;;;;21.73;13.60;;;;;;;;;;5104132;28;20046;-84
2022/01/24 07:29:31;;;;;;;20.80;13.60;;;;;;;;;;5082064;28;20381;-86
2022/01/24 07:31:57;;;;;;;21.25;14.07;;;;;;;;;;5078482;28;20032;-86
2022/01/24 07:34:23;;;;;;;22.55;13.88;;;;;;;;;;5087258;28;20462;-85
2022/01/24 07:36:48;;;;;;;24.60;15.10;;;;;;;;;;5089099;28;20023;-82
2022/01/24 07:39:14;;;;;;;23.98;14.80;;;;;;;;;;5101665;28;20058;-85
2022/01/24 07:41:45;;;;;;;22.85;13.77;;;;;;;;;;5103403;28;20405;-84
2022/01/24 07:44:11;;;;;;;20.08;12.68;;;;;;;;;;5092038;28;20020;-85
2022/01/24 07:46:37;;;;;;;21.10;13.57;;;;;;;;;;5109508;28;20031;-82
2022/01/24 07:49:04;;;;;;;24.88;14.95;;;;;;;;;;5089704;28;20028;-85
2022/01/24 07:51:29;;;;;;;22.33;14.20;;;;;;;;;;5088247;28;20031;-85
2022/01/24 07:53:54;;;;;;;23.27;14.43;;;;;;;;;;5093372;28;20031;-82
2022/01/24 07:56:20;;;;;;;23.17;14.40;;;;;;;;;;5093529;28;20156;-86
2022/01/24 07:58:45;;;;;;;21.60;13.50;;;;;;;;;;5108279;28;20023;-83
2022/01/24 08:01:12;;;;;;;23.13;14.20;;;;;;;;;;5091905;28;20032;-83
2022/01/24 08:03:41;;;;;;;25.85;15.07;;;;;;;;;;5084154;28;20031;-84
2022/01/24 08:06:07;;;;;;;24.25;14.57;;;;;;;;;;5086795;28;20047;-82
2022/01/24 08:08:33;;;;;;;23.85;14.98;;;;;;;;;;5083576;28;20112;-81
2022/01/24 08:11:04;;;;;;;22.30;14.73;;;;;;;;;;5084553;28;20035;-81
2022/01/24 08:13:30;;;;;;;22.38;14.70;;;;;;;;;;5086003;28;20351;-84
2022/01/24 08:15:58;;;;;;;23.48;14.80;;;;;;;;;;5082009;28;20023;-84
2022/01/24 08:18:23;;;;;;;24.73;15.07;;;;;;;;;;5104732;27;20394;-85
2022/01/24 08:20:48;;;;;;;27.27;16.23;;;;;;;;;;5102094;27;20031;-82
2022/01/24 08:23:15;;;;;;;26.35;16.13;;;;;;;;;;5100863;28;20024;-84
2022/01/24 08:25:40;;;;;;;24.17;16.02;;;;;;;;;;5101890;28;20041;-84
2022/01/24 08:28:06;;;;;;;28.20;16.40;;;;;;;;;;5088330;28;20023;-85
2022/01/24 08:30:31;;;;;;;26.98;15.57;;;;;;;;;;5107569;28;20036;-84
2022/01/24 08:32:57;;;;;;;25.13;15.88;;;;;;;;;;5084597;28;20111;-85
2022/01/24 08:35:23;;;;;;;26.30;16.23;;;;;;;;;;5086597;28;20109;-85
2022/01/24 08:37:49;;;;;;;24.50;14.65;;;;;;;;;;5088947;28;20040;-85
2022/01/24 08:40:23;;;;;;;26.67;17.02;;;;;;;;;;5080943;28;20607;-83
2022/01/24 08:42:57;;;;;;;25.13;14.90;;;;;;;;;;5058550;28;20037;-84
2022/01/24 08:48:28;;;;;;;26.08;14.68;;;;;;;;;;4991454;28;20085;-85
2022/01/24 08:50:54;;;;;;;25.35;14.88;;;;;;;;;;4983457;28;20045;-84
2022/01/24 08:53:20;;;;;;;25.48;15.65;;;;;;;;;;5013657;28;20040;-83
2022/01/24 08:55:46;;;;;;;26.38;16.08;;;;;;;;;;5047125;28;20430;-85
2022/01/24 08:58:13;;;;;;;24.40;15.07;;;;;;;;;;5044775;28;20107;-84
2022/01/24 09:00:41;;;;;;;26.92;16.23;;;;;;;;;;5045593;28;20049;-84
2022/01/24 09:03:06;;;;;;;29.10;16.73;;;;;;;;;;5046015;28;20123;-84
2022/01/24 09:05:35;;;;;;;28.85;17.00;;;;;;;;;;5043775;28;20067;-82
2022/01/24 09:08:01;;;;;;;26.48;15.82;;;;;;;;;;5044342;28;20044;-83
2022/01/24 09:10:26;;;;;;;26.08;16.33;;;;;;;;;;5045362;28;20031;-84
2022/01/24 09:12:52;;;;;;;27.85;16.70;;;;;;;;;;5055258;28;20036;-84
2022/01/24 09:15:18;;;;;;;33.28;18.02;;;;;;;;;;5088587;28;20026;-85
2022/01/24 09:17:43;;;;;;;29.85;17.27;;;;;;;;;;5094971;28;20506;-82
2022/01/24 09:20:10;;;;;;;31.05;18.42;;;;;;;;;;5082150;28;20517;-82
2022/01/24 09:22:36;;;;;;;31.58;18.95;;;;;;;;;;5085401;28;20035;-85
2022/01/24 09:25:02;;;;;;;33.05;19.80;;;;;;;;;;5081548;28;20585;-85
2022/01/24 09:27:30;;;;;;;30.23;17.85;;;;;;;;;;5089916;28;20027;-85
2022/01/24 09:29:56;;;;;;;32.28;19.38;;;;;;;;;;5096577;28;20041;-86
2022/01/24 09:32:22;;;;;;;28.48;17.42;;;;;;;;;;5103760;28;20473;-85
2022/01/24 09:34:48;;;;;;;29.15;16.90;;;;;;;;;;5091633;28;20091;-85
2022/01/24 09:37:13;;;;;;;30.30;18.35;;;;;;;;;;5072722;28;20126;-86
2022/01/24 09:39:39;;;;;;;31.08;18.67;;;;;;;;;;5090136;28;20035;-82
2022/01/24 09:42:06;;;;;;;30.42;18.85;;;;;;;;;;5080703;28;20046;-85
2022/01/24 09:44:32;;;;;;;31.65;18.67;;;;;;;;;;5088047;28;20024;-84
2022/01/24 09:46:58;;;;;;;30.42;18.77;;;;;;;;;;5106657;28;20028;-83
2022/01/24 09:49:23;;;;;;;33.42;19.42;;;;;;;;;;5086882;28;20414;-85
2022/01/24 09:51:50;;;;;;;32.65;19.17;;;;;;;;;;5077325;28;20474;-83
2022/01/24 09:54:15;;;;;;;29.55;18.40;;;;;;;;;;5080602;28;20081;-85
2022/01/24 09:56:41;;;;;;;35.65;20.58;;;;;;;;;;5085166;28;20023;-85
2022/01/24 09:59:07;;;;;;;32.85;20.00;;;;;;;;;;5105285;28;20110;-85
2022/01/24 10:01:33;;;;;;;32.90;18.92;;;;;;;;;;5081720;28;20081;-85
2022/01/24 10:04:20;;;;;;;30.45;19.35;;;;;;;;;;5083280;28;20035;-85
2022/01/24 10:07:06;;;;;;;33.50;18.55;;;;;;;;;;5083534;28;20375;-82
2022/01/24 10:09:40;;;;;;;36.03;19.75;;;;;;;;;;5085902;28;20505;-85
2022/01/24 10:12:09;;;;;;;33.05;19.52;;;;;;;;;;5086724;28;20393;-84
2022/01/24 10:17:26;;;;;;;31.95;19.27;;;;;;;;;;5104652;28;20060;-85
2022/01/24 10:19:51;;;;;;;29.23;18.15;;;;;;;;;;5100927;28;20034;-82
2022/01/24 10:22:21;;;;;;;32.30;19.17;;;;;;;;;;5085357;28;20024;-85
2022/01/24 10:24:49;;;;;;;29.95;18.48;;;;;;;;;;5088789;28;20023;-85
2022/01/24 10:27:17;;;;;;;27.95;18.40;;;;;;;;;;5101409;28;20031;-85
2022/01/24 10:29:50;;;;;;;29.63;17.80;;;;;;;;;;5082803;28;20031;-85
2022/01/24 10:32:51;;;;;;;27.40;16.60;;;;;;;;;;5084699;28;20473;-85
2022/01/24 10:35:40;;;;;;;24.95;16.33;;;;;;;;;;5105433;28;20389;-83
2022/01/24 10:38:42;;;;;;;25.70;15.60;;;;;;;;;;5082206;28;20023;-85
2022/01/24 10:41:22;;;;;;;26.30;16.25;;;;;;;;;;5092363;28;20381;-83
2022/01/24 10:43:50;;;;;;;26.63;16.63;;;;;;;;;;5089580;28;20058;-85
2022/01/24 10:46:27;;;;;;;27.20;17.08;;;;;;;;;;5095015;28;20505;-85
2022/01/24 10:49:06;;;;;;;22.55;14.75;;;;;;;;;;5081117;28;20036;-85
2022/01/24 10:51:46;;;;;;;25.15;16.42;;;;;;;;;;5084346;28;20385;-82
2022/01/24 10:54:26;;;;;;;24.15;14.98;;;;;;;;;;5087356;28;20381;-85
2022/01/24 10:56:52;;;;;;;25.05;16.38;;;;;;;;;;5083986;28;20114;-85
2022/01/24 10:59:22;;;;;;;24.23;15.10;;;;;;;;;;5085015;28;20389;-85
2022/01/24 11:01:56;;;;;;;26.95;17.20;;;;;;;;;;5092234;28;20083;-82
2022/01/24 11:04:29;;;;;;;22.30;15.52;;;;;;;;;;5080126;28;20481;-86
2022/01/24 11:06:56;;;;;;;26.77;17.80;;;;;;;;;;5085520;28;20028;-85
2022/01/24 11:09:30;;;;;;;26.52;16.70;;;;;;;;;;5090662;28;20020;-85
2022/01/24 11:12:01;;;;;;;29.75;18.67;;;;;;;;;;5081729;28;20034;-83
2022/01/24 11:14:28;;;;;;;30.90;18.02;;;;;;;;;;5087549;28;20031;-85
2022/01/24 11:16:57;;;;;;;33.47;18.00;;;;;;;;;;5112425;28;20023;-85
2022/01/24 11:19:29;;;;;;;28.52;17.63;;;;;;;;;;5087972;28;20106;-86
2022/01/24 11:22:00;;;;;;;30.35;18.15;;;;;;;;;;5085855;28;20024;-86
2022/01/24 11:24:51;;;;;;;25.55;16.58;;;;;;;;;;5090057;28;20051;-86
2022/01/24 11:27:15;;;;;;;24.00;15.70;;;;;;;;;;5103125;28;20089;-86
2022/01/24 11:29:43;;;;;;;22.10;15.02;;;;;;;;;;5083177;28;20016;-86
2022/01/24 11:32:25;;;;;;;22.98;14.35;;;;;;;;;;5088247;28;20034;-82
2022/01/24 11:34:53;;;;;;;24.92;15.13;;;;;;;;;;5082797;27;20139;-85
2022/01/24 11:37:41;;;;;;;24.88;15.60;;;;;;;;;;5087142;28;20110;-85
2022/01/24 11:40:10;;;;;;;22.83;14.88;;;;;;;;;;5087225;28;20100;-85
2022/01/24 11:42:36;;;;;;;27.10;16.45;;;;;;;;;;5081215;28;20038;-85
2022/01/24 11:45:11;;;;;;;25.73;16.15;;;;;;;;;;5099017;28;20023;-85
2022/01/24 11:47:37;;;;;;;25.17;16.65;;;;;;;;;;5087096;28;20554;-86
2022/01/24 11:50:24;;;;;;;28.58;18.02;;;;;;;;;;5100169;28;20023;-85
2022/01/24 11:52:51;;;;;;;27.55;17.40;;;;;;;;;;5081470;28;20038;-85
2022/01/24 11:55:31;;;;;;;25.75;16.98;;;;;;;;;;5082271;28;20077;-83
2022/01/24 11:58:07;;;;;;;26.67;16.25;;;;;;;;;;5099591;28;20502;-85
2022/01/24 12:00:39;;;;;;;25.40;16.63;;;;;;;;;;5080783;28;20116;-85
2022/01/24 12:03:27;;;;;;;27.40;17.08;;;;;;;;;;5086754;28;20028;-85
2022/01/24 12:05:56;;;;;;;27.70;17.48;;;;;;;;;;5078416;28;20114;-85
2022/01/24 12:08:43;;;;;;;26.30;16.30;;;;;;;;;;5083907;28;20493;-85
2022/01/24 12:11:15;;;;;;;27.90;17.08;;;;;;;;;;5093003;28;20106;-83
2022/01/24 12:13:46;;;;;;;28.17;17.10;;;;;;;;;;5103877;28;20065;-82
2022/01/24 12:16:14;;;;;;;23.55;15.88;;;;;;;;;;5090909;28;20045;-85
2022/01/24 12:18:39;;;;;;;24.42;16.25;;;;;;;;;;5088583;28;20062;-86
2022/01/24 12:21:22;;;;;;;22.83;14.20;;;;;;;;;;5092583;28;20056;-83
2022/01/24 12:23:51;;;;;;;23.13;14.37;;;;;;;;;;5108946;28;20395;-84
2022/01/24 12:26:16;;;;;;;24.15;15.85;;;;;;;;;;5085748;28;20063;-85
2022/01/24 12:28:42;;;;;;;25.33;15.73;;;;;;;;;;5088295;28;20417;-85
2022/01/24 12:31:26;;;;;;;22.83;16.05;;;;;;;;;;5088835;28;20398;-84
2022/01/24 12:33:54;;;;;;;22.67;13.80;;;;;;;;;;5089401;28;20024;-84
2022/01/24 12:36:38;;;;;;;20.55;13.50;;;;;;;;;;5088566;28;20138;-84
2022/01/24 12:39:32;;;;;;;20.90;14.27;;;;;;;;;;5088906;28;20036;-84
2022/01/24 12:42:02;;;;;;;21.25;15.10;;;;;;;;;;5079898;28;20130;-84
2022/01/24 12:47:28;;;;;;;20.13;13.52;;;;;;;;;;5104710;28;20358;-83
2022/01/24 12:49:58;;;;;;;21.83;15.07;;;;;;;;;;5107456;28;20035;-83
2022/01/24 12:52:27;;;;;;;22.25;14.02;;;;;;;;;;5084736;28;20031;-85
2022/01/24 12:54:59;;;;;;;22.23;14.45;;;;;;;;;;5084249;28;20381;-85
2022/01/24 12:57:32;;;;;;;22.15;15.07;;;;;;;;;;5110213;28;20434;-85
2022/01/24 12:59:59;;;;;;;;;;;;;;;;;;5091613;28;20035;-84
2022/01/24 13:02:27;;;;;;;21.65;14.90;;;;;;;;;;5089045;28;20392;-82
2022/01/24 13:05:00;;;;;;;23.05;14.40;;;;;;;;;;5085227;28;20116;-82
2022/01/24 13:07:26;;;;;;;20.55;14.35;;;;;;;;;;5107981;28;20016;-84
2022/01/24 13:09:51;;;;;;;22.98;14.75;;;;;;;;;;5084003;28;20512;-84
2022/01/24 13:12:21;;;;;;;22.25;14.70;;;;;;;;;;5092538;28;20435;-86
2022/01/24 13:14:53;;;;;;;22.45;15.48;;;;;;;;;;5083580;28;20055;-86
2022/01/24 13:23:04;;;;;;;26.98;16.25;;;;;;;;;;5101939;28;20067;-84
2022/01/24 13:25:32;;;;;;;26.90;16.67;;;;;;;;;;5088136;28;20457;-84
2022/01/24 13:28:01;;;;;;;26.52;17.20;;;;;;;;;;5086653;28;20032;-84
2022/01/24 13:30:31;;;;;;;26.55;16.98;;;;;;;;;;5079898;28;20038;-83
2022/01/24 13:32:59;;;;;;;28.42;17.60;;;;;;;;;;5107333;28;20031;-84
2022/01/24 13:35:49;;;;;;;27.65;17.20;;;;;;;;;;5085494;28;20099;-84
2022/01/24 13:38:18;;;;;;;26.48;16.75;;;;;;;;;;5085892;28;20032;-85
2022/01/24 13:41:10;;;;;;;30.70;18.30;;;;;;;;;;5088790;28;20027;-83
2022/01/24 13:43:39;;;;;;;27.83;17.17;;;;;;;;;;5091315;28;20032;-82
2022/01/24 13:46:25;;;;;;;28.15;17.52;;;;;;;;;;5093499;28;20520;-83
2022/01/24 13:48:58;;;;;;;25.75;16.30;;;;;;;;;;5079449;28;20032;-82
2022/01/24 13:51:40;;;;;;;26.13;16.90;;;;;;;;;;5079522;28;20814;-85
2022/01/24 13:54:29;;;;;;;23.85;15.63;;;;;;;;;;5084988;28;20039;-85
2022/01/24 13:56:56;;;;;;;25.27;16.55;;;;;;;;;;5084301;28;20047;-83
2022/01/24 13:59:28;;;;;;;25.35;16.08;;;;;;;;;;5082181;28;20106;-86
2022/01/24 14:02:11;;;;;;;23.58;15.65;;;;;;;;;;5076417;28;20032;-85
2022/01/24 14:04:42;;;;;;;24.35;15.50;;;;;;;;;;5095960;28;20045;-85
2022/01/24 14:07:22;;;;;;;25.65;17.20;;;;;;;;;;5083404;28;20020;-84
2022/01/24 14:09:50;;;;;;;26.88;16.58;;;;;;;;;;5071090;28;20748;-83
2022/01/24 14:12:20;;;;;;;24.20;15.40;;;;;;;;;;5074608;28;20027;-84
2022/01/24 14:14:55;;;;;;;25.90;15.93;;;;;;;;;;5080599;28;20031;-85
2022/01/24 14:17:33;;;;;;;23.15;15.57;;;;;;;;;;5076648;28;20436;-83
2022/01/24 14:20:03;;;;;;;22.75;16.02;;;;;;;;;;5087028;28;20481;-84
2022/01/24 14:22:54;;;;;;;25.30;16.48;;;;;;;;;;5079625;28;20020;-85
2022/01/24 14:25:25;;;;;;;25.48;16.55;;;;;;;;;;5081778;28;20592;-85
2022/01/24 14:28:07;;;;;;;25.13;16.05;;;;;;;;;;5085373;28;20039;-83
2022/01/24 14:30:38;;;;;;;25.50;15.65;;;;;;;;;;5080341;28;21622;-83
2022/01/24 14:33:43;;;;;;;23.00;14.95;;;;;;;;;;5076232;28;20035;-83
2022/01/24 14:36:16;;;;;;;23.80;14.85;;;;;;;;;;5004617;28;20036;-85
2022/01/24 14:38:45;;;;;;;;;;;;;;;;;;5022218;28;20483;-85
2022/01/24 14:41:40;;;;;;;23.05;15.05;;;;;;;;;;5048931;28;19959;-85
2022/01/24 14:46:54;;;;;;;24.63;15.18;;;;;;;;;;5094426;28;20039;-85
2022/01/24 14:49:24;;;;;;;24.92;16.38;;;;;;;;;;5077248;28;20032;-85
2022/01/24 14:51:51;;;;;;;24.00;16.27;;;;;;;;;;5083059;28;20035;-85
2022/01/24 14:54:23;;;;;;;26.65;17.30;;;;;;;;;;5073363;28;20032;-84
2022/01/24 14:56:50;;;;;;;23.88;16.33;;;;;;;;;;5078496;28;20096;-84
2022/01/24 14:59:16;;;;;;;25.33;16.77;;;;;;;;;;5081534;28;20047;-84
2022/01/24 15:01:43;;;;;;;23.10;16.02;;;;;;;;;;5080590;28;20096;-83
2022/01/24 15:04:10;;;;;;;26.33;16.98;;;;;;;;;;5081281;28;20481;-84
2022/01/24 15:06:35;;;;;;;25.67;16.38;;;;;;;;;;5079846;28;20038;-85
2022/01/24 15:09:07;;;;;;;25.73;15.73;;;;;;;;;;5073217;28;20057;-83
2022/01/24 15:11:35;;;;;;;27.70;16.70;;;;;;;;;;5076380;28;20042;-83
2022/01/24 15:14:05;;;;;;;26.60;16.90;;;;;;;;;;5077891;28;20035;-85
2022/01/24 15:17:19;;;;;;;26.20;17.25;;;;;;;;;;5080531;28;20059;-84
2022/01/24 15:27:41;;;;;;;27.42;17.55;;;;;;;;;;5091290;28;20067;-82
2022/01/24 15:30:08;;;;;;;28.88;17.27;;;;;;;;;;5078710;28;20506;-84
2022/01/24 15:32:34;;;;;;;27.95;17.33;;;;;;;;;;5076229;28;20045;-84
2022/01/24 15:34:59;;;;;;;28.90;17.95;;;;;;;;;;5031607;28;1062900;-84
2022/01/24 15:37:25;;;;;;;26.88;16.63;;;;;;;;;;5071679;28;20150;-84
2022/01/24 15:39:53;;;;;;;27.85;17.92;;;;;;;;;;5072482;28;20440;-84
2022/01/24 15:42:31;;;;;;;26.35;16.20;;;;;;;;;;5070555;28;20104;-84
2022/01/24 15:47:44;;;;;;;27.13;17.40;;;;;;;;;;5077265;28;20624;-84
2022/01/24 15:50:13;;;;;;;25.67;16.58;;;;;;;;;;5069322;28;20028;-83
2022/01/24 15:52:40;;;;;;;28.08;17.48;;;;;;;;;;5070989;28;20143;-84
2022/01/24 15:55:16;;;;;;;28.08;17.98;;;;;;;;;;5068735;28;20560;-82
2022/01/24 15:57:44;;;;;;;26.23;17.40;;;;;;;;;;5068918;28;20532;-82
2022/01/24 16:00:16;;;;;;;30.30;16.63;;;;;;;;;;5069623;28;20387;-84
2022/01/24 16:02:43;;;;;;;26.98;17.45;;;;;;;;;;5070854;28;20036;-84
2022/01/24 16:05:11;;;;;;;29.52;18.90;;;;;;;;;;5079719;28;20035;-84
2022/01/24 16:07:39;;;;;;;26.20;17.48;;;;;;;;;;5076570;28;20056;-84
2022/01/24 16:10:10;;;;;;;28.75;17.52;;;;;;;;;;5073436;28;20139;-84
2022/01/24 16:12:37;;;;;;;26.88;16.88;;;;;;;;;;5071370;28;20572;-83
2022/01/24 16:15:02;;;;;;;27.77;17.58;;;;;;;;;;5067925;28;20166;-84
2022/01/24 16:17:28;;;;;;;29.95;17.88;;;;;;;;;;5071732;28;20107;-85
2022/01/24 16:19:55;;;;;;;28.52;17.70;;;;;;;;;;5072195;28;20719;-84
2022/01/24 16:27:50;;;;;;;28.20;17.55;;;;;;;;;;5077700;28;20030;-83
2022/01/24 16:30:16;;;;;;;28.20;17.73;;;;;;;;;;5078974;28;20024;-84
2022/01/24 16:33:06;;;;;;;31.98;18.80;;;;;;;;;;5074251;28;20028;-86
2022/01/24 16:35:36;;;;;;;27.45;17.48;;;;;;;;;;5076534;28;20537;-85